Time;durP1;ratioP1;P1;durP2;ratioP2;P2;SDS_P1;SDS_P2;PMS_P1;PMS_P2;Temp;Humidity;BMP_temperature;BMP_pressure;BME280_temperature;BME280_humidity;BME280_pressure;Samples;Min_cycle;Max_cycle;Signal;HPM_P1;HPM_P2
2022/08/02 00:00:14;;;;;;;5.15;3.95;;;23.30;65.00;;;;;;5014796;28;20057;-13
2022/08/02 00:02:42;;;;;;;7.45;3.92;;;23.30;65.30;;;;;;5014954;28;20029;-13
2022/08/02 00:05:09;;;;;;;8.07;3.92;;;23.30;65.20;;;;;;5014870;28;20069;-13
2022/08/02 00:07:36;;;;;;;4.80;3.70;;;23.30;65.40;;;;;;5013268;28;20026;-12
2022/08/02 00:10:02;;;;;;;4.65;3.65;;;23.20;65.40;;;;;;5013261;28;20076;-12
2022/08/02 00:12:28;;;;;;;9.27;4.15;;;23.20;65.80;;;;;;5014257;28;20488;-12
2022/08/02 00:14:54;;;;;;;6.55;3.90;;;23.20;65.70;;;;;;5014811;28;20101;-12
2022/08/02 00:17:21;;;;;;;9.27;4.68;;;23.30;65.80;;;;;;5014412;28;20436;-12
2022/08/02 00:19:46;;;;;;;8.90;4.10;;;23.30;66.80;;;;;;5014182;28;20058;-12
2022/08/02 00:22:12;;;;;;;6.60;3.80;;;23.30;66.90;;;;;;5014637;28;20057;-12
2022/08/02 00:24:39;;;;;;;5.65;3.80;;;23.40;66.50;;;;;;5014083;28;20504;-12
2022/08/02 00:27:07;;;;;;;5.97;3.30;;;23.40;65.70;;;;;;5014430;28;20030;-12
2022/08/02 00:29:34;;;;;;;5.68;3.65;;;23.50;65.60;;;;;;5014582;28;20121;-12
2022/08/02 00:32:00;;;;;;;4.53;3.15;;;23.60;65.00;;;;;;5014458;28;20148;-13
2022/08/02 00:34:26;;;;;;;4.30;3.10;;;23.60;64.70;;;;;;5013927;28;20036;-13
2022/08/02 00:36:52;;;;;;;4.47;3.20;;;23.70;64.10;;;;;;5012842;28;20030;-13
2022/08/02 00:39:19;;;;;;;3.50;3.13;;;23.70;64.10;;;;;;5014283;28;20117;-12
2022/08/02 00:41:51;;;;;;;6.50;3.17;;;23.80;63.70;;;;;;5013816;28;20056;-12
2022/08/02 00:44:19;;;;;;;4.13;3.42;;;23.80;64.00;;;;;;5013796;28;20033;-14
2022/08/02 00:46:46;;;;;;;4.35;3.13;;;23.90;64.00;;;;;;5014418;28;20033;-13
2022/08/02 00:49:13;;;;;;;6.30;3.17;;;23.90;63.70;;;;;;5014260;28;20069;-14
2022/08/02 00:51:40;;;;;;;4.07;3.35;;;23.90;63.70;;;;;;5013745;28;20117;-13
2022/08/02 00:54:07;;;;;;;7.93;3.65;;;24.00;63.70;;;;;;5013990;28;20065;-13
2022/08/02 00:56:34;;;;;;;5.57;3.70;;;24.00;64.30;;;;;;5013595;28;20026;-14
2022/08/02 00:59:01;;;;;;;4.97;3.80;;;24.10;64.90;;;;;;5013929;28;20107;-14
2022/08/02 01:01:40;;;;;;;4.80;3.40;;;24.10;64.90;;;;;;5013611;28;20064;-13
2022/08/02 01:04:11;;;;;;;4.43;3.30;;;24.20;64.90;;;;;;5013715;28;20490;-12
2022/08/02 01:06:40;;;;;;;6.72;3.58;;;24.20;64.90;;;;;;5013404;28;20065;-12
2022/08/02 01:09:06;;;;;;;5.35;3.33;;;24.20;65.00;;;;;;5013833;28;20033;-12
2022/08/02 01:11:33;;;;;;;5.45;2.80;;;24.30;64.50;;;;;;5013529;28;20046;-15
2022/08/02 01:14:09;;;;;;;6.97;3.60;;;24.30;64.10;;;;;;5013801;28;20044;-14
2022/08/02 01:17:07;;;;;;;7.50;3.33;;;24.30;63.30;;;;;;5013312;28;20036;-15
2022/08/02 01:19:48;;;;;;;4.93;2.88;;;24.50;62.30;;;;;;5013291;28;20084;-13
2022/08/02 01:22:37;;;;;;;8.65;3.00;;;24.50;61.70;;;;;;5013233;28;20033;-12
2022/08/02 01:25:09;;;;;;;3.63;2.60;;;24.50;61.20;;;;;;5013672;28;20029;-13
2022/08/02 01:28:12;;;;;;;8.25;2.90;;;24.60;59.20;;;;;;5013427;28;20109;-15
2022/08/02 01:30:41;;;;;;;3.95;2.38;;;24.60;58.00;;;;;;5013210;28;20036;-13
2022/08/02 01:33:10;;;;;;;5.03;2.55;;;24.60;57.60;;;;;;5013366;28;20556;-14
2022/08/02 01:35:43;;;;;;;6.90;2.25;;;24.50;56.90;;;;;;5013133;28;20553;-12
2022/08/02 01:38:17;;;;;;;4.93;2.10;;;24.50;55.90;;;;;;5013270;28;20042;-12
2022/08/02 01:40:45;;;;;;;8.90;2.53;;;24.50;55.90;;;;;;5013236;28;20116;-12
2022/08/02 01:43:13;;;;;;;4.68;2.22;;;24.40;55.70;;;;;;5013525;28;20022;-11
2022/08/02 01:45:42;;;;;;;8.02;2.05;;;24.40;55.40;;;;;;5013456;28;20026;-13
2022/08/02 01:48:11;;;;;;;4.38;1.75;;;24.40;55.40;;;;;;5013210;28;20022;-12
2022/08/02 01:50:38;;;;;;;4.93;1.80;;;24.40;54.70;;;;;;5012917;28;20057;-12
2022/08/02 01:53:07;;;;;;;5.32;1.63;;;24.30;54.90;;;;;;5013311;28;20564;-13
2022/08/02 01:55:39;;;;;;;3.08;2.00;;;24.20;55.20;;;;;;5013399;28;20104;-12
2022/08/02 01:58:07;;;;;;;3.63;1.35;;;24.20;55.40;;;;;;5013058;28;20125;-14
2022/08/02 02:00:38;;;;;;;6.18;1.52;;;24.10;55.50;;;;;;5012851;28;20045;-12
2022/08/02 02:03:07;;;;;;;6.03;1.52;;;24.00;55.30;;;;;;5011863;28;20022;-14
2022/08/02 02:05:35;;;;;;;2.75;1.40;;;24.00;55.30;;;;;;5013097;28;20034;-13
2022/08/02 02:08:05;;;;;;;3.85;1.33;;;23.90;54.90;;;;;;5014181;28;20034;-12
2022/08/02 02:10:34;;;;;;;8.00;1.73;;;23.90;54.40;;;;;;5016631;28;20041;-13
2022/08/02 02:13:11;;;;;;;2.10;1.33;;;24.00;54.20;;;;;;5016766;28;20552;-12
2022/08/02 02:15:44;;;;;;;4.00;1.40;;;23.90;54.10;;;;;;5017086;28;20028;-12
2022/08/02 02:18:16;;;;;;;2.97;1.40;;;23.90;54.20;;;;;;5016669;28;20139;-12
2022/08/02 02:20:42;;;;;;;2.28;1.13;;;23.80;54.50;;;;;;5016566;28;20029;-12
2022/08/02 02:23:09;;;;;;;2.13;1.10;;;23.70;54.80;;;;;;5016887;28;20025;-12
2022/08/02 02:25:36;;;;;;;5.30;1.00;;;23.70;54.80;;;;;;5016454;28;20030;-12
2022/08/02 02:28:12;;;;;;;3.47;1.00;;;23.60;54.80;;;;;;5016530;28;20101;-13
2022/08/02 02:30:41;;;;;;;3.05;1.13;;;23.40;54.60;;;;;;5015177;28;20045;-13
2022/08/02 02:33:09;;;;;;;2.22;0.80;;;23.40;54.70;;;;;;5016387;28;20103;-13
2022/08/02 02:35:37;;;;;;;4.72;1.08;;;23.30;54.70;;;;;;5016488;28;20367;-10
2022/08/02 02:38:08;;;;;;;1.95;0.80;;;23.30;54.90;;;;;;5016404;28;20029;-12
2022/08/02 02:40:35;;;;;;;5.85;1.30;;;23.20;55.30;;;;;;5016022;28;20053;-11
2022/08/02 02:43:03;;;;;;;0.80;0.80;;;23.00;56.30;;;;;;5016526;28;20026;-12
2022/08/02 02:45:30;;;;;;;8.80;1.00;;;22.90;57.30;;;;;;5016465;28;20026;-13
2022/08/02 02:47:59;;;;;;;1.05;0.95;;;22.90;57.50;;;;;;5016418;28;20125;-12
2022/08/02 02:50:26;;;;;;;4.82;1.50;;;22.80;57.30;;;;;;5015854;28;20117;-13
2022/08/02 02:52:52;;;;;;;2.28;1.23;;;22.80;57.20;;;;;;5016330;28;20034;-13
2022/08/02 02:55:19;;;;;;;2.15;0.90;;;22.80;57.30;;;;;;5016184;28;20508;-14
2022/08/02 02:57:46;;;;;;;2.03;1.05;;;22.80;57.30;;;;;;5016025;28;20034;-15
2022/08/02 03:00:14;;;;;;;2.88;0.80;;;22.90;57.30;;;;;;5015871;28;20509;-14
2022/08/02 03:02:42;;;;;;;3.72;0.95;;;22.80;57.80;;;;;;5016164;28;20044;-14
2022/08/02 03:05:10;;;;;;;3.22;0.95;;;22.80;58.10;;;;;;5016110;28;20037;-14
2022/08/02 03:07:36;;;;;;;1.48;0.95;;;22.70;58.80;;;;;;5016087;28;20030;-14
2022/08/02 03:10:05;;;;;;;1.65;0.85;;;22.60;59.50;;;;;;5015676;28;20386;-13
2022/08/02 03:12:32;;;;;;;2.72;1.10;;;22.50;60.00;;;;;;5015410;28;20494;-11
2022/08/02 03:15:03;;;;;;;1.83;0.90;;;22.40;60.50;;;;;;5015819;28;20022;-13
2022/08/02 03:17:45;;;;;;;2.58;0.95;;;22.30;61.60;;;;;;5015804;28;20501;-13
2022/08/02 03:20:17;;;;;;;2.25;0.80;;;22.20;62.40;;;;;;5014318;28;20621;-12
2022/08/02 03:22:45;;;;;;;3.43;1.37;;;22.20;62.80;;;;;;5015420;28;20517;-12
2022/08/02 03:25:12;;;;;;;2.13;0.90;;;22.00;64.90;;;;;;5015317;28;20120;-12
2022/08/02 03:27:39;;;;;;;2.33;1.10;;;21.90;67.50;;;;;;5015411;28;20105;-12
2022/08/02 03:30:07;;;;;;;4.22;1.20;;;21.70;68.80;;;;;;5015313;28;20470;-12
2022/08/02 03:32:36;;;;;;;3.15;1.10;;;21.40;70.20;;;;;;5015270;28;20034;-13
2022/08/02 03:35:04;;;;;;;8.48;1.63;;;21.30;71.00;;;;;;5015416;28;20030;-13
2022/08/02 03:37:32;;;;;;;3.33;1.40;;;21.00;73.50;;;;;;5015148;28;20112;-13
2022/08/02 03:40:00;;;;;;;3.80;1.60;;;20.70;74.40;;;;;;5014757;28;20448;-14
2022/08/02 03:42:30;;;;;;;6.55;2.15;;;20.50;76.20;;;;;;5015212;28;20022;-13
2022/08/02 03:44:59;;;;;;;6.10;2.10;;;20.30;76.30;;;;;;5013824;28;20434;-13
2022/08/02 03:47:27;;;;;;;4.50;1.92;;;20.20;76.70;;;;;;5014989;28;20026;-15
2022/08/02 03:49:54;;;;;;;8.15;2.35;;;20.00;78.60;;;;;;5015084;28;20393;-14
2022/08/02 03:52:23;;;;;;;8.93;2.40;;;19.90;78.40;;;;;;5014601;28;20030;-15
2022/08/02 03:54:49;;;;;;;5.45;1.98;;;19.70;80.30;;;;;;5015531;28;20044;-13
2022/08/02 03:57:15;;;;;;;4.70;2.20;;;19.60;79.20;;;;;;5015114;28;20030;-15
2022/08/02 03:59:43;;;;;;;3.83;1.80;;;19.50;79.70;;;;;;5014838;28;20036;-14
2022/08/02 04:02:10;;;;;;;4.63;2.13;;;19.40;78.80;;;;;;5013524;28;20489;-15
2022/08/02 04:04:36;;;;;;;4.75;2.40;;;19.40;80.50;;;;;;5014379;28;20060;-14
2022/08/02 04:07:03;;;;;;;4.10;1.77;;;19.30;81.80;;;;;;5013272;28;20041;-15
2022/08/02 04:09:29;;;;;;;4.55;2.13;;;19.20;80.20;;;;;;5014583;28;20033;-13
2022/08/02 04:11:55;;;;;;;4.10;1.90;;;19.20;81.80;;;;;;5014478;28;20030;-13
2022/08/02 04:14:22;;;;;;;3.88;2.20;;;19.10;83.00;;;;;;5014345;28;20486;-13
2022/08/02 04:17:01;;;;;;;4.80;2.30;;;19.10;82.40;;;;;;5014692;28;20444;-14
2022/08/02 04:19:31;;;;;;;3.30;2.05;;;19.00;82.10;;;;;;5014409;28;20034;-12
2022/08/02 04:22:00;;;;;;;3.40;2.05;;;19.10;81.10;;;;;;5014602;28;20030;-13
2022/08/02 04:24:31;;;;;;;2.95;1.90;;;19.10;80.60;;;;;;5014181;28;20554;-14
2022/08/02 04:26:59;;;;;;;4.53;2.00;;;19.10;80.70;;;;;;5014248;28;20112;-14
2022/08/02 04:29:26;;;;;;;2.30;2.10;;;19.10;83.70;;;;;;5014147;28;20029;-13
2022/08/02 04:31:53;;;;;;;4.20;2.10;;;19.00;82.80;;;;;;5012884;28;20386;-13
2022/08/02 04:34:19;;;;;;;7.32;2.30;;;19.00;81.90;;;;;;5014000;28;20029;-13
2022/08/02 04:36:46;;;;;;;3.50;2.20;;;19.10;80.90;;;;;;5014197;28;20030;-14
2022/08/02 04:39:14;;;;;;;3.22;2.00;;;19.10;80.60;;;;;;5014001;28;20030;-14
2022/08/02 04:41:41;;;;;;;5.25;2.67;;;19.10;80.50;;;;;;5013830;28;20413;-14
2022/08/02 04:44:08;;;;;;;5.55;2.47;;;19.10;80.80;;;;;;5014441;28;20064;-14
2022/08/02 04:46:37;;;;;;;4.50;2.30;;;19.10;80.60;;;;;;5013904;28;20571;-14
2022/08/02 04:49:03;;;;;;;5.00;2.85;;;19.20;81.80;;;;;;5014424;28;20029;-12
2022/08/02 04:51:29;;;;;;;2.97;2.22;;;19.10;81.50;;;;;;5014067;28;20030;-13
2022/08/02 04:53:55;;;;;;;4.60;2.80;;;19.10;81.10;;;;;;5014087;28;20025;-13
2022/08/02 04:56:21;;;;;;;3.72;2.10;;;19.10;84.20;;;;;;5012307;28;20397;-13
2022/08/02 04:58:46;;;;;;;3.20;1.90;;;19.00;82.10;;;;;;5014166;28;20500;-14
2022/08/02 05:01:12;;;;;;;3.08;2.50;;;19.00;81.20;;;;;;5013933;28;20451;-14
2022/08/02 05:03:38;;;;;;;3.28;2.35;;;19.10;80.90;;;;;;5014000;28;20072;-14
2022/08/02 05:06:04;;;;;;;3.28;1.90;;;19.20;80.70;;;;;;5013781;28;20026;-13
2022/08/02 05:08:30;;;;;;;3.53;2.03;;;19.20;80.90;;;;;;5013290;28;20054;-14
2022/08/02 05:10:56;;;;;;;4.05;2.30;;;19.20;80.50;;;;;;5013777;28;20102;-14
2022/08/02 05:13:22;;;;;;;2.88;1.92;;;19.30;81.20;;;;;;5013820;28;20026;-12
2022/08/02 05:15:51;;;;;;;3.70;1.80;;;19.30;80.30;;;;;;5013512;28;20084;-16
2022/08/02 05:18:17;;;;;;;4.03;2.15;;;19.30;80.00;;;;;;5013470;28;20030;-15
2022/08/02 05:20:43;;;;;;;3.17;1.85;;;19.30;80.00;;;;;;5013684;28;20037;-14
2022/08/02 05:23:09;;;;;;;5.38;2.17;;;19.30;80.40;;;;;;5013634;28;20072;-15
2022/08/02 05:25:35;;;;;;;3.10;2.47;;;19.30;82.00;;;;;;5013686;28;20034;-15
2022/08/02 05:28:01;;;;;;;4.22;2.42;;;19.20;82.20;;;;;;5013375;28;20508;-15
2022/08/02 05:30:27;;;;;;;3.42;2.25;;;19.20;81.10;;;;;;5013102;28;20026;-13
2022/08/02 05:32:52;;;;;;;3.72;2.08;;;19.10;81.00;;;;;;5013524;28;20067;-15
2022/08/02 05:35:20;;;;;;;4.35;2.35;;;19.10;81.10;;;;;;5013197;28;20037;-17
2022/08/02 05:37:48;;;;;;;3.28;2.17;;;19.10;81.50;;;;;;5011996;28;20028;-15
2022/08/02 05:40:14;;;;;;;3.45;2.22;;;19.10;82.10;;;;;;5011556;28;20046;-16
2022/08/02 05:42:41;;;;;;;2.75;2.03;;;19.00;81.50;;;;;;5014361;28;20030;-15
2022/08/02 05:45:08;;;;;;;2.40;2.20;;;19.00;82.20;;;;;;5017492;28;20506;-15
2022/08/02 05:47:34;;;;;;;4.55;2.33;;;19.00;82.30;;;;;;5017524;28;20034;-16
2022/08/02 05:50:01;;;;;;;4.05;2.33;;;19.00;83.10;;;;;;5017164;28;20475;-15
2022/08/02 05:52:36;;;;;;;7.30;3.05;;;19.00;82.60;;;;;;5017039;28;20037;-15
2022/08/02 05:55:08;;;;;;;6.55;3.30;;;19.00;82.90;;;;;;5017627;28;20030;-15
2022/08/02 05:57:43;;;;;;;4.30;2.60;;;19.00;83.10;;;;;;5017433;28;20547;-15
2022/08/02 06:00:12;;;;;;;7.25;3.70;;;18.90;82.60;;;;;;5017148;28;20029;-16
2022/08/02 06:03:18;;;;;;;7.93;3.70;;;18.90;85.60;;;;;;5016744;28;20030;-15
2022/08/02 06:06:06;;;;;;;7.60;3.33;;;18.90;85.10;;;;;;5017101;28;20034;-14
2022/08/02 06:08:38;;;;;;;7.63;3.58;;;18.80;84.90;;;;;;5016997;28;20034;-14
2022/08/02 06:11:07;;;;;;;7.95;3.20;;;18.80;84.40;;;;;;5017149;28;20030;-17
2022/08/02 06:13:33;;;;;;;5.10;3.30;;;18.90;85.10;;;;;;5016765;28;20080;-15
2022/08/02 06:16:00;;;;;;;6.53;4.00;;;18.90;85.00;;;;;;5016940;28;20111;-14
2022/08/02 06:18:27;;;;;;;8.48;3.40;;;18.90;84.90;;;;;;5016361;28;20042;-15
2022/08/02 06:20:58;;;;;;;9.70;5.57;;;18.80;85.40;;;;;;5016826;28;20033;-15
2022/08/02 06:23:25;;;;;;;7.70;4.10;;;18.90;85.80;;;;;;5016536;28;20056;-17
2022/08/02 06:25:53;;;;;;;6.28;3.80;;;18.80;86.50;;;;;;5016541;28;20507;-14
2022/08/02 06:28:19;;;;;;;6.80;3.70;;;18.70;86.30;;;;;;5016566;28;20046;-15
2022/08/02 06:30:46;;;;;;;7.15;3.70;;;18.80;86.80;;;;;;5017120;28;20041;-14
2022/08/02 06:33:12;;;;;;;10.38;5.85;;;18.80;87.30;;;;;;5016303;28;20030;-14
2022/08/02 06:36:07;;;;;;;6.82;3.85;;;18.80;86.00;;;;;;5016457;28;20038;-15
2022/08/02 06:38:40;;;;;;;7.82;4.30;;;18.80;87.10;;;;;;5015984;28;20061;-17
2022/08/02 06:41:09;;;;;;;5.25;3.58;;;18.80;88.00;;;;;;5016641;28;20050;-15
2022/08/02 06:43:53;;;;;;;7.00;3.95;;;18.90;86.60;;;;;;5016526;28;20559;-15
2022/08/02 06:46:20;;;;;;;5.32;3.70;;;18.90;86.90;;;;;;5016118;28;20060;-16
2022/08/02 06:48:46;;;;;;;5.00;3.40;;;18.90;86.60;;;;;;5014967;28;20031;-15
2022/08/02 06:51:13;;;;;;;6.07;3.75;;;19.00;86.00;;;;;;5016001;28;20153;-15
2022/08/02 06:53:40;;;;;;;6.53;3.42;;;19.10;86.00;;;;;;5015825;28;20033;-14
2022/08/02 06:56:06;;;;;;;11.40;4.05;;;19.20;85.40;;;;;;5015975;28;20037;-16
2022/08/02 06:58:31;;;;;;;6.20;4.00;;;19.30;85.40;;;;;;5015717;28;20034;-14
2022/08/02 07:00:57;;;;;;;6.65;4.10;;;19.40;85.30;;;;;;5016326;28;20026;-16
2022/08/02 07:03:27;;;;;;;6.30;4.03;;;19.50;85.40;;;;;;5016100;28;20026;-15
2022/08/02 07:05:53;;;;;;;6.80;3.83;;;19.60;84.90;;;;;;5015833;28;20022;-14
2022/08/02 07:08:20;;;;;;;12.65;4.53;;;19.70;85.40;;;;;;5015587;28;20033;-14
2022/08/02 07:10:46;;;;;;;6.80;4.55;;;19.70;85.10;;;;;;5015686;28;20026;-13
2022/08/02 07:13:12;;;;;;;6.75;4.75;;;19.90;85.50;;;;;;5015649;28;20564;-14
2022/08/02 07:15:38;;;;;;;6.57;4.80;;;20.00;84.80;;;;;;5015665;28;20030;-14
2022/08/02 07:18:05;;;;;;;8.32;4.60;;;20.10;84.40;;;;;;5015653;28;20029;-14
2022/08/02 07:20:31;;;;;;;7.50;4.78;;;20.20;84.30;;;;;;5015280;28;20390;-13
2022/08/02 07:22:58;;;;;;;13.60;5.90;;;20.30;84.70;;;;;;5015436;28;20057;-15
2022/08/02 07:25:23;;;;;;;8.23;4.20;;;20.40;84.70;;;;;;5015312;28;20508;-14
2022/08/02 07:27:49;;;;;;;7.47;4.43;;;20.40;84.90;;;;;;5015352;28;20029;-16
2022/08/02 07:30:15;;;;;;;8.65;5.22;;;20.60;85.50;;;;;;5015102;28;20062;-16
2022/08/02 07:32:41;;;;;;;6.32;4.45;;;20.70;86.50;;;;;;5014074;28;20061;-14
2022/08/02 07:35:08;;;;;;;5.07;4.13;;;20.80;85.60;;;;;;5013844;28;20029;-14
2022/08/02 07:37:35;;;;;;;9.50;4.47;;;20.90;85.10;;;;;;5015178;28;20022;-14
2022/08/02 07:40:01;;;;;;;9.68;4.72;;;21.10;83.90;;;;;;5015011;28;20030;-13
2022/08/02 07:42:28;;;;;;;4.82;3.70;;;21.30;83.30;;;;;;5014894;28;20390;-14
2022/08/02 07:44:54;;;;;;;5.93;4.20;;;21.50;83.10;;;;;;5015109;28;20026;-15
2022/08/02 07:47:20;;;;;;;6.25;3.30;;;21.70;82.60;;;;;;5014983;28;20512;-14
2022/08/02 07:49:46;;;;;;;6.20;3.83;;;21.90;82.40;;;;;;5014977;28;20026;-14
2022/08/02 07:52:12;;;;;;;4.20;3.25;;;22.20;81.60;;;;;;5013531;28;20030;-14
2022/08/02 07:54:38;;;;;;;3.60;3.15;;;22.40;80.90;;;;;;5015050;28;20033;-14
2022/08/02 07:57:04;;;;;;;9.40;4.97;;;22.50;80.30;;;;;;5014817;28;20481;-14
2022/08/02 07:59:30;;;;;;;8.02;5.10;;;22.70;80.40;;;;;;5015018;28;20057;-16
2022/08/02 08:01:56;;;;;;;11.02;5.75;;;22.80;80.10;;;;;;5014686;28;20490;-13
2022/08/02 08:04:22;;;;;;;25.50;13.30;;;22.90;79.60;;;;;;5014436;28;20037;-15
2022/08/02 08:06:50;;;;;;;18.75;8.95;;;23.00;79.20;;;;;;5014506;28;20028;-13
2022/08/02 08:09:18;;;;;;;12.73;6.93;;;23.10;78.90;;;;;;5015120;28;20029;-14
2022/08/02 08:11:44;;;;;;;18.75;9.38;;;23.20;78.00;;;;;;5014556;28;20022;-14
2022/08/02 08:14:10;;;;;;;11.02;6.10;;;23.20;77.90;;;;;;5014494;28;20034;-15
2022/08/02 08:16:35;;;;;;;7.00;4.10;;;23.20;77.50;;;;;;5014189;28;20036;-14
2022/08/02 08:19:02;;;;;;;6.53;4.00;;;23.20;77.70;;;;;;5014577;28;20030;-14
2022/08/02 08:21:28;;;;;;;5.10;3.17;;;23.20;77.70;;;;;;5014500;28;20014;-13
2022/08/02 08:23:55;;;;;;;7.00;3.35;;;23.20;77.40;;;;;;5014584;28;20041;-14
2022/08/02 08:26:22;;;;;;;3.75;2.80;;;23.30;77.00;;;;;;5014106;28;20168;-14
2022/08/02 08:28:48;;;;;;;5.63;3.40;;;23.40;77.00;;;;;;5014506;28;20049;-14
2022/08/02 08:31:14;;;;;;;6.32;3.47;;;23.70;76.90;;;;;;5014518;28;20053;-14
2022/08/02 08:33:40;;;;;;;6.80;3.63;;;23.90;76.10;;;;;;5014476;28;20030;-14
2022/08/02 08:36:07;;;;;;;12.75;7.10;;;24.30;75.20;;;;;;5014059;28;20057;-14
2022/08/02 08:38:33;;;;;;;11.00;6.00;;;24.60;74.70;;;;;;5013873;28;20034;-13
2022/08/02 08:41:00;;;;;;;11.30;5.85;;;24.90;73.30;;;;;;5013900;28;20409;-13
2022/08/02 08:43:26;;;;;;;11.05;6.47;;;25.20;71.70;;;;;;5013956;28;20022;-14
2022/08/02 08:45:52;;;;;;;5.85;3.10;;;25.50;70.90;;;;;;5014405;28;20049;-14
2022/08/02 08:48:18;;;;;;;7.75;4.60;;;25.50;69.60;;;;;;5013729;28;20117;-13
2022/08/02 08:50:57;;;;;;;5.03;2.97;;;25.60;69.30;;;;;;5013757;28;20068;-14
2022/08/02 08:53:25;;;;;;;6.47;3.33;;;25.70;69.10;;;;;;5014202;28;20025;-14
2022/08/02 08:55:55;;;;;;;5.90;3.30;;;25.70;68.80;;;;;;5014040;28;20036;-14
2022/08/02 08:58:21;;;;;;;4.70;2.58;;;25.80;67.90;;;;;;5013901;28;20149;-14
2022/08/02 09:00:47;;;;;;;4.47;2.90;;;25.70;67.50;;;;;;5014416;28;20065;-14
2022/08/02 09:03:14;;;;;;;3.10;2.25;;;25.70;67.20;;;;;;5013645;28;20069;-14
2022/08/02 09:05:41;;;;;;;4.00;2.30;;;25.60;67.50;;;;;;5013518;28;20030;-14
2022/08/02 09:08:08;;;;;;;3.45;2.20;;;25.70;67.30;;;;;;5013901;28;20496;-15
2022/08/02 09:10:41;;;;;;;2.20;2.00;;;25.90;67.10;;;;;;5013747;28;20057;-14
2022/08/02 09:13:14;;;;;;;2.95;2.40;;;26.20;66.20;;;;;;5013841;28;20100;-14
2022/08/02 09:15:51;;;;;;;3.08;2.35;;;26.40;65.00;;;;;;5013878;28;20113;-14
2022/08/02 09:18:17;;;;;;;4.40;2.88;;;26.80;63.60;;;;;;5012377;28;20041;-13
2022/08/02 09:21:19;;;;;;;5.18;2.95;;;27.10;62.70;;;;;;5013300;28;20041;-14
2022/08/02 09:23:50;;;;;;;3.90;2.45;;;27.20;61.50;;;;;;4992022;28;20099;-14
2022/08/02 09:26:22;;;;;;;6.45;3.03;;;27.20;63.00;;;;;;4975687;28;20030;-15
2022/08/02 09:28:51;;;;;;;5.40;2.80;;;27.20;62.60;;;;;;4975282;28;20018;-14
2022/08/02 09:31:21;;;;;;;7.68;3.30;;;27.00;62.70;;;;;;4991591;28;20049;-14
2022/08/02 09:33:58;;;;;;;4.05;2.92;;;26.90;63.20;;;;;;4991711;28;20030;-15
2022/08/02 09:36:27;;;;;;;8.32;3.85;;;26.70;63.80;;;;;;4991324;28;20434;-15
2022/08/02 09:38:58;;;;;;;6.22;3.47;;;26.60;64.30;;;;;;4991866;28;20081;-14
2022/08/02 09:41:27;;;;;;;7.20;3.63;;;26.70;64.30;;;;;;4991305;28;20089;-14
2022/08/02 09:43:55;;;;;;;5.32;3.28;;;27.00;63.70;;;;;;4991533;28;20041;-14
2022/08/02 09:46:25;;;;;;;3.97;2.78;;;27.20;63.10;;;;;;4991260;28;20031;-14
2022/08/02 09:48:56;;;;;;;5.63;2.65;;;27.40;63.10;;;;;;4991469;28;20085;-13
2022/08/02 09:51:28;;;;;;;4.47;2.85;;;27.70;62.80;;;;;;4991361;28;20121;-13
2022/08/02 09:53:56;;;;;;;3.58;2.60;;;28.10;61.50;;;;;;4991485;28;20034;-14
2022/08/02 09:56:25;;;;;;;3.95;2.63;;;28.40;60.90;;;;;;4991298;28;20031;-14
2022/08/02 09:58:53;;;;;;;5.10;2.50;;;28.70;60.40;;;;;;5012826;28;20045;-13
2022/08/02 10:01:29;;;;;;;2.92;2.47;;;29.00;59.80;;;;;;5012917;28;20029;-14
2022/08/02 10:03:58;;;;;;;2.70;2.30;;;29.30;58.30;;;;;;5011849;28;20026;-14
2022/08/02 10:06:25;;;;;;;4.53;3.00;;;29.50;57.60;;;;;;5012962;28;20030;-14
2022/08/02 10:08:52;;;;;;;3.90;2.88;;;29.70;56.90;;;;;;5012928;28;20505;-15
2022/08/02 10:11:20;;;;;;;2.55;1.95;;;29.90;55.90;;;;;;5013239;28;20157;-15
2022/08/02 10:13:47;;;;;;;3.90;2.20;;;30.20;55.50;;;;;;5012986;28;20490;-14
2022/08/02 10:16:16;;;;;;;3.67;1.80;;;30.50;54.60;;;;;;5012660;28;20491;-15
2022/08/02 10:18:42;;;;;;;2.55;1.60;;;30.90;53.10;;;;;;5011177;28;20081;-15
2022/08/02 10:21:15;;;;;;;3.05;1.90;;;31.30;52.10;;;;;;5013167;28;20026;-15
2022/08/02 10:23:44;;;;;;;2.37;2.00;;;31.80;50.40;;;;;;5013305;28;20105;-14
2022/08/02 10:26:18;;;;;;;1.80;1.65;;;32.10;49.70;;;;;;5012652;28;20037;-15
2022/08/02 10:28:49;;;;;;;2.97;1.80;;;32.40;48.60;;;;;;5013815;28;20083;-14
2022/08/02 10:31:21;;;;;;;2.75;1.70;;;32.60;46.10;;;;;;5016461;28;20045;-14
2022/08/02 10:33:51;;;;;;;5.18;1.95;;;32.80;45.40;;;;;;5016849;28;20097;-15
2022/08/02 10:36:20;;;;;;;1.40;1.27;;;32.90;44.30;;;;;;5016369;28;20033;-14
2022/08/02 10:38:46;;;;;;;2.40;1.58;;;32.90;43.40;;;;;;5016769;28;20052;-14
2022/08/02 10:41:12;;;;;;;2.45;1.80;;;32.90;43.10;;;;;;5016086;28;20050;-14
2022/08/02 10:43:42;;;;;;;3.13;1.58;;;33.30;43.80;;;;;;5016565;28;20042;-15
2022/08/02 10:46:32;;;;;;;3.92;1.90;;;33.80;42.90;;;;;;5016204;28;20577;-15
2022/08/02 10:49:07;;;;;;;1.50;1.40;;;34.30;42.10;;;;;;5016255;28;20402;-15
2022/08/02 10:52:00;;;;;;;3.00;1.73;;;34.70;41.50;;;;;;5016300;28;20109;-14
2022/08/02 10:54:31;;;;;;;2.15;1.23;;;35.00;38.60;;;;;;5015852;28;20026;-14
2022/08/02 10:56:59;;;;;;;4.15;1.17;;;35.40;39.60;;;;;;5015994;28;20061;-14
2022/08/02 10:59:27;;;;;;;1.90;1.60;;;35.80;39.60;;;;;;5015884;28;20049;-14
2022/08/02 11:02:01;;;;;;;2.22;1.70;;;36.10;39.00;;;;;;5016179;28;20052;-14
2022/08/02 11:04:35;;;;;;;2.47;1.55;;;36.50;38.60;;;;;;5015783;28;20026;-15
2022/08/02 11:07:31;;;;;;;1.88;1.63;;;36.80;37.70;;;;;;5015968;28;20034;-14
2022/08/02 11:10:00;;;;;;;2.58;1.80;;;37.00;37.00;;;;;;5015807;28;20560;-15
2022/08/02 11:12:29;;;;;;;1.67;1.58;;;37.50;36.60;;;;;;5015514;28;20049;-14
2022/08/02 11:15:05;;;;;;;2.63;1.65;;;37.60;36.00;;;;;;5015956;28;20103;-14
2022/08/02 11:17:54;;;;;;;3.33;1.42;;;37.50;35.30;;;;;;5015822;28;20597;-14
2022/08/02 11:20:21;;;;;;;1.30;1.17;;;37.70;35.90;;;;;;5015521;28;20026;-14
2022/08/02 11:22:51;;;;;;;1.58;1.48;;;38.00;35.50;;;;;;5015424;28;20492;-14
2022/08/02 11:25:23;;;;;;;1.60;1.50;;;38.40;34.70;;;;;;5015404;28;20029;-14
2022/08/02 11:27:54;;;;;;;1.45;1.35;;;38.60;34.40;;;;;;5015573;28;20148;-14
2022/08/02 11:30:21;;;;;;;1.85;1.60;;;38.90;34.70;;;;;;5015337;28;20543;-14
2022/08/02 11:32:48;;;;;;;2.25;1.70;;;39.10;33.90;;;;;;5015585;28;20045;-14
2022/08/02 11:35:15;;;;;;;3.00;1.60;;;39.30;33.70;;;;;;5015617;28;20504;-14
2022/08/02 11:37:44;;;;;;;1.42;1.30;;;39.40;32.70;;;;;;5015442;28;20049;-14
2022/08/02 11:40:17;;;;;;;1.40;1.30;;;39.40;32.00;;;;;;5014094;28;20540;-14
2022/08/02 11:42:45;;;;;;;2.25;1.58;;;39.30;32.40;;;;;;5015426;28;20026;-14
2022/08/02 11:45:14;;;;;;;3.45;1.45;;;39.40;32.90;;;;;;5015345;28;20501;-14
2022/08/02 11:47:52;;;;;;;2.60;1.25;;;39.60;32.70;;;;;;5015219;28;20053;-14
2022/08/02 11:50:22;;;;;;;2.75;1.42;;;39.90;31.90;;;;;;5014964;28;20018;-15
2022/08/02 11:52:48;;;;;;;2.17;1.40;;;40.00;32.00;;;;;;5015234;28;20022;-14
2022/08/02 11:55:14;;;;;;;2.45;1.55;;;40.10;31.90;;;;;;5015204;28;20454;-14
2022/08/02 11:57:40;;;;;;;1.40;1.30;;;40.00;32.00;;;;;;5015064;28;20514;-14
2022/08/02 12:00:17;;;;;;;1.52;1.33;;;39.80;31.80;;;;;;5015019;28;20070;-14
2022/08/02 12:02:47;;;;;;;2.47;1.30;;;39.40;31.70;;;;;;5015253;28;20026;-14
2022/08/02 12:05:19;;;;;;;2.45;1.15;;;39.40;30.60;;;;;;5014663;28;20045;-14
2022/08/02 12:07:45;;;;;;;2.95;1.30;;;39.50;29.80;;;;;;5014914;28;20030;-14
2022/08/02 12:10:19;;;;;;;1.33;1.23;;;39.90;30.10;;;;;;5014748;28;20121;-14
2022/08/02 12:12:49;;;;;;;1.20;1.10;;;40.20;29.40;;;;;;5014938;28;20100;-14
2022/08/02 12:15:27;;;;;;;1.10;1.10;;;40.50;28.50;;;;;;5013335;28;20511;-14
2022/08/02 12:20:38;;;;;;;1.38;1.20;;;40.70;29.30;;;;;;5014185;28;20045;-14
2022/08/02 12:23:04;;;;;;;1.10;1.08;;;40.80;29.30;;;;;;5014754;28;20022;-14
2022/08/02 12:25:31;;;;;;;1.25;1.10;;;40.90;29.10;;;;;;5014300;28;20029;-14
2022/08/02 12:28:22;;;;;;;2.55;1.23;;;41.00;28.90;;;;;;5014598;28;20022;-14
2022/08/02 12:30:50;;;;;;;1.13;1.02;;;40.90;27.40;;;;;;5014628;28;20034;-14
2022/08/02 12:33:16;;;;;;;1.25;0.93;;;40.60;28.70;;;;;;5014953;28;20021;-14
2022/08/02 12:35:42;;;;;;;1.35;1.00;;;40.10;28.90;;;;;;5014263;28;20037;-14
2022/08/02 12:38:10;;;;;;;1.23;1.15;;;39.80;29.40;;;;;;5014156;28;20371;-14
2022/08/02 12:40:36;;;;;;;1.50;1.15;;;39.70;28.90;;;;;;5013714;28;20068;-14
2022/08/02 12:43:05;;;;;;;1.27;1.17;;;39.40;29.30;;;;;;5014347;28;20037;-14
2022/08/02 12:45:53;;;;;;;1.30;1.10;;;39.40;29.50;;;;;;5014077;28;20549;-13
2022/08/02 12:48:34;;;;;;;1.23;1.00;;;39.40;29.30;;;;;;5013532;28;20041;-14
2022/08/02 12:51:27;;;;;;;1.30;1.20;;;39.10;28.50;;;;;;5014253;28;20033;-14
2022/08/02 12:54:09;;;;;;;1.25;1.00;;;38.60;28.70;;;;;;5014091;28;20108;-14
2022/08/02 12:56:38;;;;;;;1.03;1.03;;;38.40;28.80;;;;;;5014148;28;20470;-14
2022/08/02 12:59:05;;;;;;;1.65;1.10;;;38.70;28.60;;;;;;5013611;28;20034;-14